sensor_id;sensor_type;location;lat;lon;timestamp;P1;durP1;ratioP1;P2;durP2;ratioP2
16826;SDS011;8530;49.540;8.576;2024-03-06T00:00:14;15.23;;;9.50;;
16826;SDS011;8530;49.540;8.576;2024-03-06T00:02:41;16.30;;;10.60;;
16826;SDS011;8530;49.540;8.576;2024-03-06T00:05:08;12.07;;;9.53;;
16826;SDS011;8530;49.540;8.576;2024-03-06T00:07:36;14.50;;;9.27;;
16826;SDS011;8530;49.540;8.576;2024-03-06T00:10:03;19.20;;;12.20;;
16826;SDS011;8530;49.540;8.576;2024-03-06T00:12:30;14.40;;;10.40;;
16826;SDS011;8530;49.540;8.576;2024-03-06T00:14:56;15.03;;;9.80;;
16826;SDS011;8530;49.540;8.576;2024-03-06T00:17:23;12.20;;;9.83;;
16826;SDS011;8530;49.540;8.576;2024-03-06T00:19:50;18.83;;;9.77;;
16826;SDS011;8530;49.540;8.576;2024-03-06T00:22:17;12.53;;;10.03;;
16826;SDS011;8530;49.540;8.576;2024-03-06T00:24:45;12.63;;;9.83;;
16826;SDS011;8530;49.540;8.576;2024-03-06T00:27:13;11.10;;;9.60;;
16826;SDS011;8530;49.540;8.576;2024-03-06T00:29:40;11.93;;;9.93;;
16826;SDS011;8530;49.540;8.576;2024-03-06T00:32:06;13.63;;;8.60;;
16826;SDS011;8530;49.540;8.576;2024-03-06T00:34:33;14.57;;;9.93;;
16826;SDS011;8530;49.540;8.576;2024-03-06T00:37:00;10.73;;;9.63;;
16826;SDS011;8530;49.540;8.576;2024-03-06T00:39:26;16.77;;;10.10;;
16826;SDS011;8530;49.540;8.576;2024-03-06T00:41:55;13.87;;;7.67;;
16826;SDS011;8530;49.540;8.576;2024-03-06T00:44:21;11.50;;;8.40;;
16826;SDS011;8530;49.540;8.576;2024-03-06T00:46:48;8.17;;;6.80;;
16826;SDS011;8530;49.540;8.576;2024-03-06T00:49:14;8.90;;;7.13;;
16826;SDS011;8530;49.540;8.576;2024-03-06T00:51:42;9.87;;;7.53;;
16826;SDS011;8530;49.540;8.576;2024-03-06T00:54:09;11.87;;;7.80;;
16826;SDS011;8530;49.540;8.576;2024-03-06T00:56:37;9.67;;;7.47;;
16826;SDS011;8530;49.540;8.576;2024-03-06T00:59:05;7.97;;;7.17;;
16826;SDS011;8530;49.540;8.576;2024-03-06T01:01:32;9.10;;;7.67;;
16826;SDS011;8530;49.540;8.576;2024-03-06T01:03:58;7.90;;;6.03;;
16826;SDS011;8530;49.540;8.576;2024-03-06T01:06:25;13.03;;;8.07;;
16826;SDS011;8530;49.540;8.576;2024-03-06T01:08:52;9.70;;;7.53;;
16826;SDS011;8530;49.540;8.576;2024-03-06T01:11:19;14.80;;;9.13;;
16826;SDS011;8530;49.540;8.576;2024-03-06T01:13:46;9.10;;;7.90;;
16826;SDS011;8530;49.540;8.576;2024-03-06T01:16:14;8.83;;;7.93;;
16826;SDS011;8530;49.540;8.576;2024-03-06T01:18:41;11.40;;;7.90;;
16826;SDS011;8530;49.540;8.576;2024-03-06T01:21:07;9.13;;;7.37;;
16826;SDS011;8530;49.540;8.576;2024-03-06T01:23:34;13.70;;;8.77;;
16826;SDS011;8530;49.540;8.576;2024-03-06T01:26:01;8.10;;;7.30;;
16826;SDS011;8530;49.540;8.576;2024-03-06T01:28:28;8.70;;;6.60;;
16826;SDS011;8530;49.540;8.576;2024-03-06T01:30:54;10.93;;;7.20;;
16826;SDS011;8530;49.540;8.576;2024-03-06T01:33:22;8.73;;;6.83;;
16826;SDS011;8530;49.540;8.576;2024-03-06T01:35:49;10.80;;;7.63;;
16826;SDS011;8530;49.540;8.576;2024-03-06T01:38:16;8.80;;;8.00;;
16826;SDS011;8530;49.540;8.576;2024-03-06T01:40:43;11.57;;;7.67;;
16826;SDS011;8530;49.540;8.576;2024-03-06T01:43:21;8.63;;;7.77;;
16826;SDS011;8530;49.540;8.576;2024-03-06T01:45:49;10.20;;;8.23;;
16826;SDS011;8530;49.540;8.576;2024-03-06T01:48:16;10.30;;;7.93;;
16826;SDS011;8530;49.540;8.576;2024-03-06T01:50:45;9.00;;;8.10;;
16826;SDS011;8530;49.540;8.576;2024-03-06T01:53:12;10.57;;;8.30;;
16826;SDS011;8530;49.540;8.576;2024-03-06T01:55:40;9.10;;;8.20;;
16826;SDS011;8530;49.540;8.576;2024-03-06T01:58:07;9.87;;;7.57;;
16826;SDS011;8530;49.540;8.576;2024-03-06T02:00:35;12.13;;;8.17;;
16826;SDS011;8530;49.540;8.576;2024-03-06T02:03:03;12.67;;;10.17;;
16826;SDS011;8530;49.540;8.576;2024-03-06T02:05:29;9.67;;;7.97;;
16826;SDS011;8530;49.540;8.576;2024-03-06T02:07:58;8.97;;;7.83;;
16826;SDS011;8530;49.540;8.576;2024-03-06T02:10:25;9.97;;;8.97;;
16826;SDS011;8530;49.540;8.576;2024-03-06T02:12:52;9.80;;;7.57;;
16826;SDS011;8530;49.540;8.576;2024-03-06T02:15:20;13.10;;;8.47;;
16826;SDS011;8530;49.540;8.576;2024-03-06T02:17:47;10.30;;;8.90;;
16826;SDS011;8530;49.540;8.576;2024-03-06T02:20:14;12.83;;;9.40;;
16826;SDS011;8530;49.540;8.576;2024-03-06T02:22:42;12.23;;;9.33;;
16826;SDS011;8530;49.540;8.576;2024-03-06T02:25:09;14.73;;;9.10;;
16826;SDS011;8530;49.540;8.576;2024-03-06T02:27:37;25.00;;;12.33;;
16826;SDS011;8530;49.540;8.576;2024-03-06T02:30:04;17.40;;;10.90;;
16826;SDS011;8530;49.540;8.576;2024-03-06T02:32:31;12.30;;;10.27;;
16826;SDS011;8530;49.540;8.576;2024-03-06T02:34:58;14.97;;;9.33;;
16826;SDS011;8530;49.540;8.576;2024-03-06T02:37:27;17.43;;;11.23;;
16826;SDS011;8530;49.540;8.576;2024-03-06T02:39:55;16.27;;;9.70;;
16826;SDS011;8530;49.540;8.576;2024-03-06T02:42:21;13.37;;;10.87;;
16826;SDS011;8530;49.540;8.576;2024-03-06T02:44:49;11.10;;;8.43;;
16826;SDS011;8530;49.540;8.576;2024-03-06T02:47:16;13.77;;;9.37;;
16826;SDS011;8530;49.540;8.576;2024-03-06T02:49:43;11.90;;;9.40;;
16826;SDS011;8530;49.540;8.576;2024-03-06T02:52:10;12.80;;;9.20;;
16826;SDS011;8530;49.540;8.576;2024-03-06T02:54:36;12.70;;;8.90;;
16826;SDS011;8530;49.540;8.576;2024-03-06T02:57:04;10.23;;;8.63;;
16826;SDS011;8530;49.540;8.576;2024-03-06T02:59:32;18.43;;;8.23;;
16826;SDS011;8530;49.540;8.576;2024-03-06T03:01:59;11.00;;;8.67;;
16826;SDS011;8530;49.540;8.576;2024-03-06T03:04:26;13.70;;;9.50;;
16826;SDS011;8530;49.540;8.576;2024-03-06T03:06:53;14.50;;;10.07;;
16826;SDS011;8530;49.540;8.576;2024-03-06T03:09:19;10.60;;;9.50;;
16826;SDS011;8530;49.540;8.576;2024-03-06T03:11:46;11.93;;;9.67;;
16826;SDS011;8530;49.540;8.576;2024-03-06T03:14:14;12.57;;;9.60;;
16826;SDS011;8530;49.540;8.576;2024-03-06T03:16:41;14.90;;;10.03;;
16826;SDS011;8530;49.540;8.576;2024-03-06T03:19:08;11.57;;;8.57;;
16826;SDS011;8530;49.540;8.576;2024-03-06T03:21:34;13.03;;;9.93;;
16826;SDS011;8530;49.540;8.576;2024-03-06T03:24:01;17.43;;;9.50;;
16826;SDS011;8530;49.540;8.576;2024-03-06T03:26:28;14.53;;;10.43;;
16826;SDS011;8530;49.540;8.576;2024-03-06T03:28:55;10.00;;;8.97;;
16826;SDS011;8530;49.540;8.576;2024-03-06T03:31:23;11.33;;;8.80;;
16826;SDS011;8530;49.540;8.576;2024-03-06T03:33:50;7.80;;;7.10;;
16826;SDS011;8530;49.540;8.576;2024-03-06T03:36:17;13.13;;;9.00;;
16826;SDS011;8530;49.540;8.576;2024-03-06T03:38:43;9.27;;;8.03;;
16826;SDS011;8530;49.540;8.576;2024-03-06T03:41:10;10.60;;;7.87;;
16826;SDS011;8530;49.540;8.576;2024-03-06T03:43:38;9.93;;;8.47;;
16826;SDS011;8530;49.540;8.576;2024-03-06T03:46:05;11.77;;;8.67;;
16826;SDS011;8530;49.540;8.576;2024-03-06T03:48:34;8.40;;;7.50;;
16826;SDS011;8530;49.540;8.576;2024-03-06T03:51:01;9.53;;;8.53;;
16826;SDS011;8530;49.540;8.576;2024-03-06T03:53:29;12.63;;;8.77;;
16826;SDS011;8530;49.540;8.576;2024-03-06T03:55:56;11.07;;;9.87;;
16826;SDS011;8530;49.540;8.576;2024-03-06T03:58:22;12.07;;;10.70;;
16826;SDS011;8530;49.540;8.576;2024-03-06T04:00:49;10.63;;;9.53;;
16826;SDS011;8530;49.540;8.576;2024-03-06T04:03:17;10.43;;;9.43;;
16826;SDS011;8530;49.540;8.576;2024-03-06T04:05:46;13.13;;;9.30;;
16826;SDS011;8530;49.540;8.576;2024-03-06T04:08:13;10.97;;;9.77;;
16826;SDS011;8530;49.540;8.576;2024-03-06T04:10:41;14.50;;;10.33;;
16826;SDS011;8530;49.540;8.576;2024-03-06T04:13:10;18.57;;;10.67;;
16826;SDS011;8530;49.540;8.576;2024-03-06T04:15:36;15.20;;;10.30;;
16826;SDS011;8530;49.540;8.576;2024-03-06T04:18:03;13.50;;;10.20;;
16826;SDS011;8530;49.540;8.576;2024-03-06T04:20:30;13.00;;;10.90;;
16826;SDS011;8530;49.540;8.576;2024-03-06T04:22:58;11.27;;;9.83;;
16826;SDS011;8530;49.540;8.576;2024-03-06T04:25:25;12.80;;;10.43;;
16826;SDS011;8530;49.540;8.576;2024-03-06T04:27:52;12.80;;;10.50;;
16826;SDS011;8530;49.540;8.576;2024-03-06T04:30:18;11.20;;;9.00;;
16826;SDS011;8530;49.540;8.576;2024-03-06T04:32:46;11.33;;;9.00;;
16826;SDS011;8530;49.540;8.576;2024-03-06T04:35:12;21.93;;;11.27;;
16826;SDS011;8530;49.540;8.576;2024-03-06T04:37:39;12.57;;;11.17;;
16826;SDS011;8530;49.540;8.576;2024-03-06T04:40:08;12.07;;;10.33;;
16826;SDS011;8530;49.540;8.576;2024-03-06T04:42:35;9.80;;;8.90;;
16826;SDS011;8530;49.540;8.576;2024-03-06T04:45:02;11.23;;;10.07;;
16826;SDS011;8530;49.540;8.576;2024-03-06T04:47:29;15.37;;;10.80;;
16826;SDS011;8530;49.540;8.576;2024-03-06T04:49:56;10.90;;;8.63;;
16826;SDS011;8530;49.540;8.576;2024-03-06T04:52:23;13.40;;;10.40;;
16826;SDS011;8530;49.540;8.576;2024-03-06T04:54:50;14.27;;;10.80;;
16826;SDS011;8530;49.540;8.576;2024-03-06T04:57:18;12.73;;;10.90;;
16826;SDS011;8530;49.540;8.576;2024-03-06T04:59:45;11.73;;;9.83;;
16826;SDS011;8530;49.540;8.576;2024-03-06T05:02:13;11.60;;;9.60;;
16826;SDS011;8530;49.540;8.576;2024-03-06T05:04:39;11.57;;;9.70;;
16826;SDS011;8530;49.540;8.576;2024-03-06T05:07:06;12.30;;;9.60;;
16826;SDS011;8530;49.540;8.576;2024-03-06T05:09:33;12.70;;;10.27;;
16826;SDS011;8530;49.540;8.576;2024-03-06T05:12:00;20.43;;;11.83;;
16826;SDS011;8530;49.540;8.576;2024-03-06T05:14:28;17.73;;;11.40;;
16826;SDS011;8530;49.540;8.576;2024-03-06T05:16:54;17.17;;;11.13;;
16826;SDS011;8530;49.540;8.576;2024-03-06T05:19:21;13.73;;;11.70;;
16826;SDS011;8530;49.540;8.576;2024-03-06T05:21:48;13.37;;;11.40;;
16826;SDS011;8530;49.540;8.576;2024-03-06T05:24:14;16.20;;;12.63;;
16826;SDS011;8530;49.540;8.576;2024-03-06T05:26:41;16.60;;;13.37;;
16826;SDS011;8530;49.540;8.576;2024-03-06T05:29:08;18.80;;;14.53;;
16826;SDS011;8530;49.540;8.576;2024-03-06T05:31:36;17.60;;;12.50;;
16826;SDS011;8530;49.540;8.576;2024-03-06T05:34:03;13.90;;;11.23;;
16826;SDS011;8530;49.540;8.576;2024-03-06T05:36:30;15.43;;;12.57;;
16826;SDS011;8530;49.540;8.576;2024-03-06T05:38:57;13.93;;;12.50;;
16826;SDS011;8530;49.540;8.576;2024-03-06T05:41:23;16.40;;;13.03;;
16826;SDS011;8530;49.540;8.576;2024-03-06T05:43:50;16.30;;;12.17;;
16826;SDS011;8530;49.540;8.576;2024-03-06T05:46:17;18.50;;;13.87;;
16826;SDS011;8530;49.540;8.576;2024-03-06T05:48:46;25.03;;;17.53;;
16826;SDS011;8530;49.540;8.576;2024-03-06T05:51:13;34.80;;;21.10;;
16826;SDS011;8530;49.540;8.576;2024-03-06T05:53:39;48.27;;;27.90;;
16826;SDS011;8530;49.540;8.576;2024-03-06T05:56:07;65.23;;;41.20;;
16826;SDS011;8530;49.540;8.576;2024-03-06T05:58:34;51.90;;;30.73;;
16826;SDS011;8530;49.540;8.576;2024-03-06T06:01:01;62.80;;;36.30;;
16826;SDS011;8530;49.540;8.576;2024-03-06T06:03:28;41.97;;;22.83;;
16826;SDS011;8530;49.540;8.576;2024-03-06T06:05:56;30.00;;;19.47;;
16826;SDS011;8530;49.540;8.576;2024-03-06T06:08:23;28.83;;;17.10;;
16826;SDS011;8530;49.540;8.576;2024-03-06T06:10:50;16.10;;;13.43;;
16826;SDS011;8530;49.540;8.576;2024-03-06T06:13:17;19.17;;;14.53;;
16826;SDS011;8530;49.540;8.576;2024-03-06T06:15:44;23.07;;;16.53;;
16826;SDS011;8530;49.540;8.576;2024-03-06T06:18:11;25.10;;;17.13;;
16826;SDS011;8530;49.540;8.576;2024-03-06T06:20:38;20.57;;;15.47;;
16826;SDS011;8530;49.540;8.576;2024-03-06T06:23:08;20.30;;;15.10;;
16826;SDS011;8530;49.540;8.576;2024-03-06T06:25:34;20.93;;;13.63;;
16826;SDS011;8530;49.540;8.576;2024-03-06T06:28:01;19.27;;;13.63;;
16826;SDS011;8530;49.540;8.576;2024-03-06T06:30:28;15.03;;;11.80;;
16826;SDS011;8530;49.540;8.576;2024-03-06T06:32:55;17.13;;;12.53;;
16826;SDS011;8530;49.540;8.576;2024-03-06T06:35:22;14.57;;;11.47;;
16826;SDS011;8530;49.540;8.576;2024-03-06T06:37:50;20.90;;;12.77;;
16826;SDS011;8530;49.540;8.576;2024-03-06T06:40:18;19.93;;;11.90;;
16826;SDS011;8530;49.540;8.576;2024-03-06T06:42:47;16.30;;;12.07;;
16826;SDS011;8530;49.540;8.576;2024-03-06T06:45:15;19.07;;;11.70;;
16826;SDS011;8530;49.540;8.576;2024-03-06T06:47:43;19.23;;;11.07;;
16826;SDS011;8530;49.540;8.576;2024-03-06T06:50:10;17.33;;;13.80;;
16826;SDS011;8530;49.540;8.576;2024-03-06T06:52:36;19.73;;;12.10;;
16826;SDS011;8530;49.540;8.576;2024-03-06T06:55:04;18.43;;;12.00;;
16826;SDS011;8530;49.540;8.576;2024-03-06T06:57:35;15.13;;;12.13;;
16826;SDS011;8530;49.540;8.576;2024-03-06T07:00:02;14.00;;;11.23;;
16826;SDS011;8530;49.540;8.576;2024-03-06T07:02:35;15.37;;;12.00;;
16826;SDS011;8530;49.540;8.576;2024-03-06T07:05:02;16.93;;;10.80;;
16826;SDS011;8530;49.540;8.576;2024-03-06T07:07:30;16.50;;;11.20;;
16826;SDS011;8530;49.540;8.576;2024-03-06T07:09:57;13.63;;;10.53;;
16826;SDS011;8530;49.540;8.576;2024-03-06T07:12:24;19.40;;;11.27;;
16826;SDS011;8530;49.540;8.576;2024-03-06T07:14:52;12.20;;;9.83;;
16826;SDS011;8530;49.540;8.576;2024-03-06T07:17:19;12.07;;;10.00;;
16826;SDS011;8530;49.540;8.576;2024-03-06T07:19:45;12.17;;;10.03;;
16826;SDS011;8530;49.540;8.576;2024-03-06T07:22:12;18.87;;;11.87;;
16826;SDS011;8530;49.540;8.576;2024-03-06T07:24:39;15.77;;;13.10;;
16826;SDS011;8530;49.540;8.576;2024-03-06T07:27:06;13.87;;;12.00;;
16826;SDS011;8530;49.540;8.576;2024-03-06T07:29:34;19.60;;;11.33;;
16826;SDS011;8530;49.540;8.576;2024-03-06T07:32:02;12.07;;;10.33;;
16826;SDS011;8530;49.540;8.576;2024-03-06T07:34:30;13.10;;;10.93;;
16826;SDS011;8530;49.540;8.576;2024-03-06T07:36:57;14.23;;;10.57;;
16826;SDS011;8530;49.540;8.576;2024-03-06T07:39:24;12.87;;;10.23;;
16826;SDS011;8530;49.540;8.576;2024-03-06T07:41:51;15.13;;;10.23;;
16826;SDS011;8530;49.540;8.576;2024-03-06T07:44:18;10.33;;;9.03;;
16826;SDS011;8530;49.540;8.576;2024-03-06T07:46:45;13.57;;;10.30;;
16826;SDS011;8530;49.540;8.576;2024-03-06T07:49:13;19.70;;;12.50;;
16826;SDS011;8530;49.540;8.576;2024-03-06T07:51:40;18.43;;;11.83;;
16826;SDS011;8530;49.540;8.576;2024-03-06T07:54:07;17.73;;;12.00;;
16826;SDS011;8530;49.540;8.576;2024-03-06T07:56:34;14.40;;;11.53;;
16826;SDS011;8530;49.540;8.576;2024-03-06T07:59:01;15.83;;;11.00;;
16826;SDS011;8530;49.540;8.576;2024-03-06T08:01:28;14.10;;;11.53;;
16826;SDS011;8530;49.540;8.576;2024-03-06T08:03:55;13.77;;;12.10;;
16826;SDS011;8530;49.540;8.576;2024-03-06T08:06:23;15.50;;;10.93;;
16826;SDS011;8530;49.540;8.576;2024-03-06T08:08:51;17.90;;;12.10;;
16826;SDS011;8530;49.540;8.576;2024-03-06T08:11:18;15.83;;;11.77;;
16826;SDS011;8530;49.540;8.576;2024-03-06T08:13:46;16.00;;;10.40;;
16826;SDS011;8530;49.540;8.576;2024-03-06T08:16:15;12.57;;;10.27;;
16826;SDS011;8530;49.540;8.576;2024-03-06T08:18:42;14.40;;;10.10;;
16826;SDS011;8530;49.540;8.576;2024-03-06T08:21:09;18.30;;;9.83;;
16826;SDS011;8530;49.540;8.576;2024-03-06T08:23:37;12.83;;;8.43;;
16826;SDS011;8530;49.540;8.576;2024-03-06T08:26:04;9.43;;;7.70;;
16826;SDS011;8530;49.540;8.576;2024-03-06T08:28:31;10.97;;;8.50;;
16826;SDS011;8530;49.540;8.576;2024-03-06T08:30:57;9.47;;;7.40;;
16826;SDS011;8530;49.540;8.576;2024-03-06T08:33:25;9.27;;;7.37;;
16826;SDS011;8530;49.540;8.576;2024-03-06T08:35:52;8.00;;;7.17;;
16826;SDS011;8530;49.540;8.576;2024-03-06T08:38:19;10.63;;;7.93;;
16826;SDS011;8530;49.540;8.576;2024-03-06T08:40:47;8.13;;;7.33;;
16826;SDS011;8530;49.540;8.576;2024-03-06T08:43:13;8.23;;;6.13;;
16826;SDS011;8530;49.540;8.576;2024-03-06T08:45:40;9.70;;;6.90;;
16826;SDS011;8530;49.540;8.576;2024-03-06T08:48:07;12.30;;;8.00;;
16826;SDS011;8530;49.540;8.576;2024-03-06T08:50:35;10.33;;;6.93;;
16826;SDS011;8530;49.540;8.576;2024-03-06T08:53:02;11.43;;;6.17;;
16826;SDS011;8530;49.540;8.576;2024-03-06T08:55:28;8.17;;;6.20;;
16826;SDS011;8530;49.540;8.576;2024-03-06T08:57:56;7.87;;;5.40;;
16826;SDS011;8530;49.540;8.576;2024-03-06T09:00:23;6.93;;;6.00;;
16826;SDS011;8530;49.540;8.576;2024-03-06T09:02:51;6.57;;;5.23;;
16826;SDS011;8530;49.540;8.576;2024-03-06T09:05:18;6.13;;;5.53;;
16826;SDS011;8530;49.540;8.576;2024-03-06T09:07:47;11.00;;;6.40;;
16826;SDS011;8530;49.540;8.576;2024-03-06T09:10:13;7.33;;;5.37;;
16826;SDS011;8530;49.540;8.576;2024-03-06T09:12:40;7.83;;;5.47;;
16826;SDS011;8530;49.540;8.576;2024-03-06T09:15:08;6.00;;;3.90;;
16826;SDS011;8530;49.540;8.576;2024-03-06T09:17:36;5.70;;;4.63;;
16826;SDS011;8530;49.540;8.576;2024-03-06T09:20:03;5.37;;;4.57;;
16826;SDS011;8530;49.540;8.576;2024-03-06T09:22:35;12.30;;;5.50;;
16826;SDS011;8530;49.540;8.576;2024-03-06T09:25:02;4.63;;;4.20;;
16826;SDS011;8530;49.540;8.576;2024-03-06T09:27:29;7.50;;;5.27;;
16826;SDS011;8530;49.540;8.576;2024-03-06T09:29:56;5.57;;;4.17;;
16826;SDS011;8530;49.540;8.576;2024-03-06T09:32:24;8.03;;;5.03;;
16826;SDS011;8530;49.540;8.576;2024-03-06T09:34:51;4.20;;;3.43;;
16826;SDS011;8530;49.540;8.576;2024-03-06T09:37:18;3.80;;;2.80;;
16826;SDS011;8530;49.540;8.576;2024-03-06T09:39:44;7.83;;;5.10;;
16826;SDS011;8530;49.540;8.576;2024-03-06T09:42:12;5.50;;;4.67;;
16826;SDS011;8530;49.540;8.576;2024-03-06T09:44:39;5.60;;;4.03;;
16826;SDS011;8530;49.540;8.576;2024-03-06T09:47:06;6.97;;;4.73;;
16826;SDS011;8530;49.540;8.576;2024-03-06T09:49:36;6.50;;;4.23;;
16826;SDS011;8530;49.540;8.576;2024-03-06T09:52:03;8.13;;;5.20;;
16826;SDS011;8530;49.540;8.576;2024-03-06T09:54:30;8.63;;;4.67;;
16826;SDS011;8530;49.540;8.576;2024-03-06T09:56:57;7.43;;;5.93;;
16826;SDS011;8530;49.540;8.576;2024-03-06T09:59:24;8.30;;;6.20;;
16826;SDS011;8530;49.540;8.576;2024-03-06T10:01:53;9.13;;;7.33;;
16826;SDS011;8530;49.540;8.576;2024-03-06T10:04:21;8.20;;;6.27;;
16826;SDS011;8530;49.540;8.576;2024-03-06T10:06:51;11.13;;;6.37;;
16826;SDS011;8530;49.540;8.576;2024-03-06T10:09:20;10.67;;;6.50;;
16826;SDS011;8530;49.540;8.576;2024-03-06T10:11:47;10.43;;;6.87;;
16826;SDS011;8530;49.540;8.576;2024-03-06T10:14:15;7.90;;;7.10;;
16826;SDS011;8530;49.540;8.576;2024-03-06T10:16:54;8.13;;;5.17;;
16826;SDS011;8530;49.540;8.576;2024-03-06T10:19:22;6.87;;;4.80;;
16826;SDS011;8530;49.540;8.576;2024-03-06T10:21:51;6.10;;;4.93;;
16826;SDS011;8530;49.540;8.576;2024-03-06T10:24:18;5.67;;;4.80;;
16826;SDS011;8530;49.540;8.576;2024-03-06T10:26:46;11.67;;;7.70;;
16826;SDS011;8530;49.540;8.576;2024-03-06T10:29:15;10.03;;;5.90;;
16826;SDS011;8530;49.540;8.576;2024-03-06T10:31:46;7.80;;;6.20;;
16826;SDS011;8530;49.540;8.576;2024-03-06T10:34:14;10.40;;;7.60;;
16826;SDS011;8530;49.540;8.576;2024-03-06T10:36:41;14.37;;;7.87;;
16826;SDS011;8530;49.540;8.576;2024-03-06T10:39:11;10.73;;;6.70;;
16826;SDS011;8530;49.540;8.576;2024-03-06T10:41:39;10.50;;;7.73;;
16826;SDS011;8530;49.540;8.576;2024-03-06T10:44:07;11.50;;;7.37;;
16826;SDS011;8530;49.540;8.576;2024-03-06T10:46:38;8.83;;;7.80;;
16826;SDS011;8530;49.540;8.576;2024-03-06T10:49:09;10.57;;;7.40;;
16826;SDS011;8530;49.540;8.576;2024-03-06T10:51:37;10.30;;;8.17;;
16826;SDS011;8530;49.540;8.576;2024-03-06T10:54:08;17.70;;;9.77;;
16826;SDS011;8530;49.540;8.576;2024-03-06T10:56:38;10.83;;;8.53;;
16826;SDS011;8530;49.540;8.576;2024-03-06T10:59:08;13.40;;;9.67;;
16826;SDS011;8530;49.540;8.576;2024-03-06T11:01:37;15.37;;;10.83;;
16826;SDS011;8530;49.540;8.576;2024-03-06T11:04:05;11.47;;;9.30;;
16826;SDS011;8530;49.540;8.576;2024-03-06T11:06:32;10.10;;;8.53;;
16826;SDS011;8530;49.540;8.576;2024-03-06T11:08:59;12.23;;;8.63;;
16826;SDS011;8530;49.540;8.576;2024-03-06T11:11:28;10.80;;;9.10;;
16826;SDS011;8530;49.540;8.576;2024-03-06T11:13:59;15.03;;;10.00;;
16826;SDS011;8530;49.540;8.576;2024-03-06T11:16:28;13.07;;;10.37;;
16826;SDS011;8530;49.540;8.576;2024-03-06T11:19:04;17.10;;;10.77;;
16826;SDS011;8530;49.540;8.576;2024-03-06T11:21:32;11.83;;;10.57;;
16826;SDS011;8530;49.540;8.576;2024-03-06T11:24:12;15.60;;;12.00;;
16826;SDS011;8530;49.540;8.576;2024-03-06T11:26:43;15.30;;;11.73;;
16826;SDS011;8530;49.540;8.576;2024-03-06T11:29:11;16.63;;;11.13;;
16826;SDS011;8530;49.540;8.576;2024-03-06T11:31:39;15.90;;;13.60;;
16826;SDS011;8530;49.540;8.576;2024-03-06T11:34:23;13.87;;;10.77;;
16826;SDS011;8530;49.540;8.576;2024-03-06T11:36:53;16.07;;;11.93;;
16826;SDS011;8530;49.540;8.576;2024-03-06T11:39:20;18.73;;;14.27;;
16826;SDS011;8530;49.540;8.576;2024-03-06T11:41:48;16.33;;;11.70;;
16826;SDS011;8530;49.540;8.576;2024-03-06T11:44:17;19.53;;;13.03;;
16826;SDS011;8530;49.540;8.576;2024-03-06T11:46:46;14.57;;;10.83;;
16826;SDS011;8530;49.540;8.576;2024-03-06T11:49:14;17.23;;;11.77;;
16826;SDS011;8530;49.540;8.576;2024-03-06T11:51:44;15.70;;;11.77;;
16826;SDS011;8530;49.540;8.576;2024-03-06T11:54:11;13.53;;;10.90;;
16826;SDS011;8530;49.540;8.576;2024-03-06T11:56:38;16.07;;;12.43;;
16826;SDS011;8530;49.540;8.576;2024-03-06T11:59:07;15.33;;;12.50;;
16826;SDS011;8530;49.540;8.576;2024-03-06T12:01:34;14.40;;;11.37;;
16826;SDS011;8530;49.540;8.576;2024-03-06T12:04:01;15.70;;;11.97;;
16826;SDS011;8530;49.540;8.576;2024-03-06T12:06:29;13.63;;;10.17;;
16826;SDS011;8530;49.540;8.576;2024-03-06T12:08:56;15.80;;;12.07;;
16826;SDS011;8530;49.540;8.576;2024-03-06T12:11:23;16.97;;;12.53;;
16826;SDS011;8530;49.540;8.576;2024-03-06T12:13:53;14.73;;;12.23;;
16826;SDS011;8530;49.540;8.576;2024-03-06T12:16:21;14.30;;;11.60;;
16826;SDS011;8530;49.540;8.576;2024-03-06T12:18:53;15.13;;;11.33;;
16826;SDS011;8530;49.540;8.576;2024-03-06T12:21:22;17.73;;;12.90;;
16826;SDS011;8530;49.540;8.576;2024-03-06T12:24:01;19.13;;;12.43;;
16826;SDS011;8530;49.540;8.576;2024-03-06T12:26:29;16.20;;;10.83;;
16826;SDS011;8530;49.540;8.576;2024-03-06T12:29:03;18.13;;;13.03;;
16826;SDS011;8530;49.540;8.576;2024-03-06T12:31:32;17.03;;;12.07;;
16826;SDS011;8530;49.540;8.576;2024-03-06T12:34:00;14.90;;;13.07;;
16826;SDS011;8530;49.540;8.576;2024-03-06T12:36:28;16.63;;;12.57;;
16826;SDS011;8530;49.540;8.576;2024-03-06T12:38:56;16.80;;;13.20;;
16826;SDS011;8530;49.540;8.576;2024-03-06T12:41:24;17.80;;;12.20;;
16826;SDS011;8530;49.540;8.576;2024-03-06T12:43:52;15.07;;;11.17;;
16826;SDS011;8530;49.540;8.576;2024-03-06T12:46:20;16.30;;;11.20;;
16826;SDS011;8530;49.540;8.576;2024-03-06T12:48:48;18.70;;;12.30;;
16826;SDS011;8530;49.540;8.576;2024-03-06T12:51:15;16.97;;;11.93;;
16826;SDS011;8530;49.540;8.576;2024-03-06T12:53:42;18.23;;;13.23;;
16826;SDS011;8530;49.540;8.576;2024-03-06T12:56:08;18.80;;;13.10;;
16826;SDS011;8530;49.540;8.576;2024-03-06T12:58:36;16.73;;;12.90;;
16826;SDS011;8530;49.540;8.576;2024-03-06T13:01:02;15.87;;;12.73;;
16826;SDS011;8530;49.540;8.576;2024-03-06T13:03:29;20.23;;;13.30;;
16826;SDS011;8530;49.540;8.576;2024-03-06T13:05:58;18.40;;;13.37;;
16826;SDS011;8530;49.540;8.576;2024-03-06T13:08:25;19.73;;;13.13;;
16826;SDS011;8530;49.540;8.576;2024-03-06T13:10:52;19.17;;;14.03;;
16826;SDS011;8530;49.540;8.576;2024-03-06T13:13:19;15.50;;;11.13;;
16826;SDS011;8530;49.540;8.576;2024-03-06T13:15:48;19.67;;;13.53;;
16826;SDS011;8530;49.540;8.576;2024-03-06T13:18:15;16.57;;;13.23;;
16826;SDS011;8530;49.540;8.576;2024-03-06T13:20:42;18.77;;;13.53;;
16826;SDS011;8530;49.540;8.576;2024-03-06T13:23:10;16.47;;;11.30;;
16826;SDS011;8530;49.540;8.576;2024-03-06T13:25:37;16.90;;;12.70;;
16826;SDS011;8530;49.540;8.576;2024-03-06T13:28:04;20.97;;;14.53;;
16826;SDS011;8530;49.540;8.576;2024-03-06T13:30:31;18.63;;;13.20;;
16826;SDS011;8530;49.540;8.576;2024-03-06T13:32:58;15.27;;;11.50;;
16826;SDS011;8530;49.540;8.576;2024-03-06T13:35:25;17.03;;;12.30;;
16826;SDS011;8530;49.540;8.576;2024-03-06T13:37:51;19.33;;;13.50;;
16826;SDS011;8530;49.540;8.576;2024-03-06T13:40:20;18.67;;;13.37;;
16826;SDS011;8530;49.540;8.576;2024-03-06T13:42:47;19.77;;;12.63;;
16826;SDS011;8530;49.540;8.576;2024-03-06T13:45:13;16.53;;;11.97;;
16826;SDS011;8530;49.540;8.576;2024-03-06T13:47:40;17.80;;;12.80;;
16826;SDS011;8530;49.540;8.576;2024-03-06T13:50:07;19.00;;;11.70;;
16826;SDS011;8530;49.540;8.576;2024-03-06T13:52:34;17.10;;;12.80;;
16826;SDS011;8530;49.540;8.576;2024-03-06T13:55:01;17.53;;;12.60;;
16826;SDS011;8530;49.540;8.576;2024-03-06T13:57:30;20.33;;;13.80;;
16826;SDS011;8530;49.540;8.576;2024-03-06T13:59:58;22.57;;;14.53;;
16826;SDS011;8530;49.540;8.576;2024-03-06T14:02:25;17.23;;;11.97;;
16826;SDS011;8530;49.540;8.576;2024-03-06T14:04:52;19.83;;;13.47;;
16826;SDS011;8530;49.540;8.576;2024-03-06T14:07:18;21.80;;;12.17;;
16826;SDS011;8530;49.540;8.576;2024-03-06T14:09:45;18.03;;;12.10;;
16826;SDS011;8530;49.540;8.576;2024-03-06T14:12:12;19.87;;;12.47;;
16826;SDS011;8530;49.540;8.576;2024-03-06T14:14:40;19.03;;;13.30;;
16826;SDS011;8530;49.540;8.576;2024-03-06T14:17:07;17.43;;;13.43;;
16826;SDS011;8530;49.540;8.576;2024-03-06T14:19:34;16.07;;;11.03;;
16826;SDS011;8530;49.540;8.576;2024-03-06T14:22:00;19.87;;;13.50;;
16826;SDS011;8530;49.540;8.576;2024-03-06T14:24:27;19.37;;;13.77;;
16826;SDS011;8530;49.540;8.576;2024-03-06T14:26:55;16.40;;;13.47;;
16826;SDS011;8530;49.540;8.576;2024-03-06T14:29:21;23.90;;;14.33;;
16826;SDS011;8530;49.540;8.576;2024-03-06T14:31:49;17.80;;;13.37;;
16826;SDS011;8530;49.540;8.576;2024-03-06T14:34:16;15.43;;;11.27;;
16826;SDS011;8530;49.540;8.576;2024-03-06T14:36:43;20.00;;;14.00;;
16826;SDS011;8530;49.540;8.576;2024-03-06T14:39:10;22.50;;;13.80;;
16826;SDS011;8530;49.540;8.576;2024-03-06T14:41:38;13.23;;;11.40;;
16826;SDS011;8530;49.540;8.576;2024-03-06T14:44:07;19.43;;;14.17;;